sensor_id;sensor_type;location;lat;lon;timestamp;P1;durP1;ratioP1;P2;durP2;ratioP2
1174;SDS011;576;48.418;10.074;2024-02-15T00:00:37;2.70;;;2.50;;
1174;SDS011;576;48.418;10.074;2024-02-15T00:03:05;2.90;;;2.37;;
1174;SDS011;576;48.418;10.074;2024-02-15T00:05:33;2.33;;;2.13;;
1174;SDS011;576;48.418;10.074;2024-02-15T00:08:03;3.43;;;3.00;;
1174;SDS011;576;48.418;10.074;2024-02-15T00:10:32;3.53;;;2.30;;
1174;SDS011;576;48.418;10.074;2024-02-15T00:13:02;2.77;;;2.53;;
1174;SDS011;576;48.418;10.074;2024-02-15T00:15:32;3.70;;;2.17;;
1174;SDS011;576;48.418;10.074;2024-02-15T00:18:01;5.93;;;2.20;;
1174;SDS011;576;48.418;10.074;2024-02-15T00:20:30;2.47;;;2.27;;
1174;SDS011;576;48.418;10.074;2024-02-15T00:23:00;3.90;;;3.23;;
1174;SDS011;576;48.418;10.074;2024-02-15T00:25:28;4.83;;;2.60;;
1174;SDS011;576;48.418;10.074;2024-02-15T00:27:57;3.57;;;2.83;;
1174;SDS011;576;48.418;10.074;2024-02-15T00:30:28;2.33;;;2.10;;
1174;SDS011;576;48.418;10.074;2024-02-15T00:32:58;2.60;;;2.17;;
1174;SDS011;576;48.418;10.074;2024-02-15T00:35:28;2.40;;;2.20;;
1174;SDS011;576;48.418;10.074;2024-02-15T00:37:56;2.57;;;2.37;;
1174;SDS011;576;48.418;10.074;2024-02-15T00:40:24;2.27;;;2.10;;
1174;SDS011;576;48.418;10.074;2024-02-15T00:42:53;3.23;;;2.60;;
1174;SDS011;576;48.418;10.074;2024-02-15T00:45:21;2.03;;;1.80;;
1174;SDS011;576;48.418;10.074;2024-02-15T00:47:50;2.57;;;2.20;;
1174;SDS011;576;48.418;10.074;2024-02-15T00:50:19;2.77;;;2.03;;
1174;SDS011;576;48.418;10.074;2024-02-15T00:52:48;2.50;;;2.30;;
1174;SDS011;576;48.418;10.074;2024-02-15T00:55:16;2.73;;;2.27;;
1174;SDS011;576;48.418;10.074;2024-02-15T00:57:45;2.57;;;2.33;;
1174;SDS011;576;48.418;10.074;2024-02-15T01:00:14;2.67;;;2.47;;
1174;SDS011;576;48.418;10.074;2024-02-15T01:02:43;3.80;;;2.33;;
1174;SDS011;576;48.418;10.074;2024-02-15T01:05:13;2.50;;;2.30;;
1174;SDS011;576;48.418;10.074;2024-02-15T01:07:42;3.13;;;2.20;;
1174;SDS011;576;48.418;10.074;2024-02-15T01:10:10;2.53;;;2.33;;
1174;SDS011;576;48.418;10.074;2024-02-15T01:12:39;3.33;;;1.87;;
1174;SDS011;576;48.418;10.074;2024-02-15T01:15:07;2.03;;;1.87;;
1174;SDS011;576;48.418;10.074;2024-02-15T01:17:36;2.77;;;2.20;;
1174;SDS011;576;48.418;10.074;2024-02-15T01:20:05;3.40;;;2.20;;
1174;SDS011;576;48.418;10.074;2024-02-15T01:22:35;2.57;;;2.07;;
1174;SDS011;576;48.418;10.074;2024-02-15T01:25:04;1.90;;;1.80;;
1174;SDS011;576;48.418;10.074;2024-02-15T01:27:33;2.03;;;1.90;;
1174;SDS011;576;48.418;10.074;2024-02-15T01:30:01;2.27;;;2.07;;
1174;SDS011;576;48.418;10.074;2024-02-15T01:32:31;2.27;;;2.07;;
1174;SDS011;576;48.418;10.074;2024-02-15T01:34:59;1.90;;;1.80;;
1174;SDS011;576;48.418;10.074;2024-02-15T01:37:27;2.30;;;2.00;;
1174;SDS011;576;48.418;10.074;2024-02-15T01:39:57;2.03;;;1.90;;
1174;SDS011;576;48.418;10.074;2024-02-15T01:42:25;1.77;;;1.67;;
1174;SDS011;576;48.418;10.074;2024-02-15T01:44:54;2.27;;;2.07;;
1174;SDS011;576;48.418;10.074;2024-02-15T01:47:22;2.53;;;2.10;;
1174;SDS011;576;48.418;10.074;2024-02-15T01:49:51;1.90;;;1.67;;
1174;SDS011;576;48.418;10.074;2024-02-15T01:52:20;4.50;;;2.03;;
1174;SDS011;576;48.418;10.074;2024-02-15T01:54:50;2.30;;;1.80;;
1174;SDS011;576;48.418;10.074;2024-02-15T01:57:21;2.60;;;2.40;;
1174;SDS011;576;48.418;10.074;2024-02-15T01:59:49;3.23;;;2.20;;
1174;SDS011;576;48.418;10.074;2024-02-15T02:02:20;2.70;;;2.50;;
1174;SDS011;576;48.418;10.074;2024-02-15T02:04:52;1.97;;;1.87;;
1174;SDS011;576;48.418;10.074;2024-02-15T02:07:21;1.77;;;1.67;;
1174;SDS011;576;48.418;10.074;2024-02-15T02:09:49;1.93;;;1.63;;
1174;SDS011;576;48.418;10.074;2024-02-15T02:12:18;2.80;;;2.13;;
1174;SDS011;576;48.418;10.074;2024-02-15T02:14:47;2.43;;;2.20;;
1174;SDS011;576;48.418;10.074;2024-02-15T02:17:16;1.53;;;1.43;;
1174;SDS011;576;48.418;10.074;2024-02-15T02:19:46;2.00;;;1.90;;
1174;SDS011;576;48.418;10.074;2024-02-15T02:22:16;1.97;;;1.60;;
1174;SDS011;576;48.418;10.074;2024-02-15T02:27:37;1.97;;;1.87;;
1174;SDS011;576;48.418;10.074;2024-02-15T02:30:11;1.90;;;1.80;;
1174;SDS011;576;48.418;10.074;2024-02-15T02:32:42;1.60;;;1.50;;
1174;SDS011;576;48.418;10.074;2024-02-15T02:35:10;2.20;;;1.77;;
1174;SDS011;576;48.418;10.074;2024-02-15T02:37:39;2.67;;;2.13;;
1174;SDS011;576;48.418;10.074;2024-02-15T02:40:09;2.03;;;1.87;;
1174;SDS011;576;48.418;10.074;2024-02-15T02:42:49;2.00;;;1.90;;
1174;SDS011;576;48.418;10.074;2024-02-15T02:45:18;3.77;;;2.10;;
1174;SDS011;576;48.418;10.074;2024-02-15T02:47:49;2.13;;;1.73;;
1174;SDS011;576;48.418;10.074;2024-02-15T02:50:20;2.23;;;2.03;;
1174;SDS011;576;48.418;10.074;2024-02-15T02:52:50;2.60;;;2.27;;
1174;SDS011;576;48.418;10.074;2024-02-15T02:55:20;1.77;;;1.67;;
1174;SDS011;576;48.418;10.074;2024-02-15T02:57:48;2.30;;;1.93;;
1174;SDS011;576;48.418;10.074;2024-02-15T03:00:16;2.47;;;1.93;;
1174;SDS011;576;48.418;10.074;2024-02-15T03:02:46;1.77;;;1.63;;
1174;SDS011;576;48.418;10.074;2024-02-15T03:05:15;2.87;;;1.80;;
1174;SDS011;576;48.418;10.074;2024-02-15T03:07:44;2.00;;;1.80;;
1174;SDS011;576;48.418;10.074;2024-02-15T03:10:12;2.50;;;2.00;;
1174;SDS011;576;48.418;10.074;2024-02-15T03:12:42;2.00;;;1.90;;
1174;SDS011;576;48.418;10.074;2024-02-15T03:15:15;3.40;;;2.03;;
1174;SDS011;576;48.418;10.074;2024-02-15T03:17:46;1.80;;;1.70;;
1174;SDS011;576;48.418;10.074;2024-02-15T03:20:15;2.73;;;1.90;;
1174;SDS011;576;48.418;10.074;2024-02-15T03:22:52;4.00;;;1.80;;
1174;SDS011;576;48.418;10.074;2024-02-15T03:25:21;1.90;;;1.80;;
1174;SDS011;576;48.418;10.074;2024-02-15T03:27:52;2.00;;;1.73;;
1174;SDS011;576;48.418;10.074;2024-02-15T03:30:23;1.60;;;1.50;;
1174;SDS011;576;48.418;10.074;2024-02-15T03:32:52;4.10;;;1.83;;
1174;SDS011;576;48.418;10.074;2024-02-15T03:35:21;2.17;;;2.00;;
1174;SDS011;576;48.418;10.074;2024-02-15T03:37:51;1.93;;;1.73;;
1174;SDS011;576;48.418;10.074;2024-02-15T03:40:20;1.83;;;1.73;;
1174;SDS011;576;48.418;10.074;2024-02-15T03:42:49;1.53;;;1.43;;
1174;SDS011;576;48.418;10.074;2024-02-15T03:45:19;1.50;;;1.40;;
1174;SDS011;576;48.418;10.074;2024-02-15T03:47:50;1.77;;;1.67;;
1174;SDS011;576;48.418;10.074;2024-02-15T03:50:19;2.03;;;1.87;;
1174;SDS011;576;48.418;10.074;2024-02-15T03:52:48;2.57;;;2.07;;
1174;SDS011;576;48.418;10.074;2024-02-15T03:55:17;2.30;;;1.73;;
1174;SDS011;576;48.418;10.074;2024-02-15T03:57:48;2.20;;;2.00;;
1174;SDS011;576;48.418;10.074;2024-02-15T04:00:16;1.40;;;1.30;;
1174;SDS011;576;48.418;10.074;2024-02-15T04:02:48;3.67;;;1.90;;
1174;SDS011;576;48.418;10.074;2024-02-15T04:05:17;2.33;;;1.70;;
1174;SDS011;576;48.418;10.074;2024-02-15T04:07:46;1.73;;;1.60;;
1174;SDS011;576;48.418;10.074;2024-02-15T04:10:14;1.70;;;1.60;;
1174;SDS011;576;48.418;10.074;2024-02-15T04:12:44;1.67;;;1.57;;
1174;SDS011;576;48.418;10.074;2024-02-15T04:15:13;1.73;;;1.63;;
1174;SDS011;576;48.418;10.074;2024-02-15T04:17:45;1.60;;;1.50;;
1174;SDS011;576;48.418;10.074;2024-02-15T04:20:14;1.93;;;1.60;;
1174;SDS011;576;48.418;10.074;2024-02-15T04:22:44;2.43;;;2.33;;
1174;SDS011;576;48.418;10.074;2024-02-15T04:25:14;1.77;;;1.53;;
1174;SDS011;576;48.418;10.074;2024-02-15T04:27:44;2.07;;;1.87;;
1174;SDS011;576;48.418;10.074;2024-02-15T04:30:14;2.03;;;1.90;;
1174;SDS011;576;48.418;10.074;2024-02-15T04:32:43;3.50;;;1.63;;
1174;SDS011;576;48.418;10.074;2024-02-15T04:35:14;2.00;;;1.80;;
1174;SDS011;576;48.418;10.074;2024-02-15T04:37:42;1.73;;;1.63;;
1174;SDS011;576;48.418;10.074;2024-02-15T04:40:12;1.90;;;1.80;;
1174;SDS011;576;48.418;10.074;2024-02-15T04:42:40;1.70;;;1.60;;
1174;SDS011;576;48.418;10.074;2024-02-15T04:45:12;2.13;;;2.00;;
1174;SDS011;576;48.418;10.074;2024-02-15T04:47:42;2.17;;;1.97;;
1174;SDS011;576;48.418;10.074;2024-02-15T04:50:14;1.90;;;1.80;;
1174;SDS011;576;48.418;10.074;2024-02-15T04:52:45;3.57;;;2.10;;
1174;SDS011;576;48.418;10.074;2024-02-15T04:55:15;1.90;;;1.80;;
1174;SDS011;576;48.418;10.074;2024-02-15T04:57:44;2.40;;;2.20;;
1174;SDS011;576;48.418;10.074;2024-02-15T05:00:15;2.10;;;1.80;;
1174;SDS011;576;48.418;10.074;2024-02-15T05:02:47;1.73;;;1.63;;
1174;SDS011;576;48.418;10.074;2024-02-15T05:05:17;1.63;;;1.50;;
1174;SDS011;576;48.418;10.074;2024-02-15T05:07:46;1.87;;;1.70;;
1174;SDS011;576;48.418;10.074;2024-02-15T05:10:17;1.87;;;1.77;;
1174;SDS011;576;48.418;10.074;2024-02-15T05:12:45;1.80;;;1.70;;
1174;SDS011;576;48.418;10.074;2024-02-15T05:15:15;2.37;;;1.83;;
1174;SDS011;576;48.418;10.074;2024-02-15T05:17:45;1.70;;;1.60;;
1174;SDS011;576;48.418;10.074;2024-02-15T05:20:15;4.80;;;3.93;;
1174;SDS011;576;48.418;10.074;2024-02-15T05:22:44;1.57;;;1.47;;
1174;SDS011;576;48.418;10.074;2024-02-15T05:25:21;1.67;;;1.57;;
1174;SDS011;576;48.418;10.074;2024-02-15T05:27:52;2.20;;;2.00;;
1174;SDS011;576;48.418;10.074;2024-02-15T05:30:23;2.50;;;1.60;;
1174;SDS011;576;48.418;10.074;2024-02-15T05:32:52;1.60;;;1.50;;
1174;SDS011;576;48.418;10.074;2024-02-15T05:35:21;1.90;;;1.80;;
1174;SDS011;576;48.418;10.074;2024-02-15T05:37:53;1.63;;;1.53;;
1174;SDS011;576;48.418;10.074;2024-02-15T05:40:22;2.17;;;1.67;;
1174;SDS011;576;48.418;10.074;2024-02-15T05:42:54;1.80;;;1.70;;
1174;SDS011;576;48.418;10.074;2024-02-15T05:45:28;1.50;;;1.40;;
1174;SDS011;576;48.418;10.074;2024-02-15T05:48:00;1.70;;;1.60;;
1174;SDS011;576;48.418;10.074;2024-02-15T05:50:28;2.00;;;1.80;;
1174;SDS011;576;48.418;10.074;2024-02-15T05:52:59;2.60;;;1.40;;
1174;SDS011;576;48.418;10.074;2024-02-15T05:55:28;1.43;;;1.33;;
1174;SDS011;576;48.418;10.074;2024-02-15T05:58:00;1.50;;;1.40;;
1174;SDS011;576;48.418;10.074;2024-02-15T06:00:29;2.70;;;1.70;;
1174;SDS011;576;48.418;10.074;2024-02-15T06:02:58;2.63;;;1.50;;
1174;SDS011;576;48.418;10.074;2024-02-15T06:05:28;1.60;;;1.50;;
1174;SDS011;576;48.418;10.074;2024-02-15T06:07:56;1.70;;;1.60;;
1174;SDS011;576;48.418;10.074;2024-02-15T06:10:26;1.50;;;1.40;;
1174;SDS011;576;48.418;10.074;2024-02-15T06:12:56;2.00;;;1.90;;
1174;SDS011;576;48.418;10.074;2024-02-15T06:15:25;1.80;;;1.70;;
1174;SDS011;576;48.418;10.074;2024-02-15T06:17:54;1.77;;;1.67;;
1174;SDS011;576;48.418;10.074;2024-02-15T06:20:23;2.50;;;2.20;;
1174;SDS011;576;48.418;10.074;2024-02-15T06:22:55;1.60;;;1.50;;
1174;SDS011;576;48.418;10.074;2024-02-15T06:25:23;2.07;;;1.83;;
1174;SDS011;576;48.418;10.074;2024-02-15T06:27:53;1.50;;;1.40;;
1174;SDS011;576;48.418;10.074;2024-02-15T06:30:26;2.93;;;2.00;;
1174;SDS011;576;48.418;10.074;2024-02-15T06:33:11;1.80;;;1.70;;
1174;SDS011;576;48.418;10.074;2024-02-15T06:35:57;1.30;;;1.20;;
1174;SDS011;576;48.418;10.074;2024-02-15T06:38:43;1.73;;;1.63;;
1174;SDS011;576;48.418;10.074;2024-02-15T06:41:28;2.10;;;1.80;;
1174;SDS011;576;48.418;10.074;2024-02-15T06:43:58;2.43;;;2.20;;
1174;SDS011;576;48.418;10.074;2024-02-15T06:46:26;3.73;;;1.87;;
1174;SDS011;576;48.418;10.074;2024-02-15T06:48:55;1.60;;;1.50;;
1174;SDS011;576;48.418;10.074;2024-02-15T06:51:25;2.43;;;1.57;;
1174;SDS011;576;48.418;10.074;2024-02-15T06:53:53;2.03;;;1.73;;
1174;SDS011;576;48.418;10.074;2024-02-15T06:56:23;2.00;;;1.70;;
1174;SDS011;576;48.418;10.074;2024-02-15T06:58:51;1.90;;;1.70;;
1174;SDS011;576;48.418;10.074;2024-02-15T07:01:25;2.13;;;1.90;;
1174;SDS011;576;48.418;10.074;2024-02-15T07:03:53;2.30;;;2.10;;
1174;SDS011;576;48.418;10.074;2024-02-15T07:06:25;2.07;;;1.87;;
1174;SDS011;576;48.418;10.074;2024-02-15T07:08:54;1.67;;;1.57;;
1174;SDS011;576;48.418;10.074;2024-02-15T07:11:24;2.70;;;1.87;;
1174;SDS011;576;48.418;10.074;2024-02-15T07:13:52;2.13;;;2.00;;
1174;SDS011;576;48.418;10.074;2024-02-15T07:16:21;2.00;;;1.80;;
1174;SDS011;576;48.418;10.074;2024-02-15T07:18:51;1.63;;;1.40;;
1174;SDS011;576;48.418;10.074;2024-02-15T07:21:20;1.40;;;1.30;;
1174;SDS011;576;48.418;10.074;2024-02-15T07:23:52;1.80;;;1.70;;
1174;SDS011;576;48.418;10.074;2024-02-15T07:26:22;2.10;;;1.90;;
1174;SDS011;576;48.418;10.074;2024-02-15T07:28:52;2.53;;;2.33;;
1174;SDS011;576;48.418;10.074;2024-02-15T07:31:21;2.40;;;1.90;;
1174;SDS011;576;48.418;10.074;2024-02-15T07:33:51;1.77;;;1.67;;
1174;SDS011;576;48.418;10.074;2024-02-15T07:36:20;2.00;;;1.90;;
1174;SDS011;576;48.418;10.074;2024-02-15T07:38:49;14.77;;;2.20;;
1174;SDS011;576;48.418;10.074;2024-02-15T07:41:18;1.70;;;1.60;;
1174;SDS011;576;48.418;10.074;2024-02-15T07:43:49;2.03;;;1.80;;
1174;SDS011;576;48.418;10.074;2024-02-15T07:46:19;1.90;;;1.80;;
1174;SDS011;576;48.418;10.074;2024-02-15T07:48:48;2.20;;;1.77;;
1174;SDS011;576;48.418;10.074;2024-02-15T07:51:19;2.17;;;2.07;;
1174;SDS011;576;48.418;10.074;2024-02-15T07:53:48;4.53;;;2.17;;
1174;SDS011;576;48.418;10.074;2024-02-15T07:56:17;2.90;;;1.73;;
1174;SDS011;576;48.418;10.074;2024-02-15T07:58:48;2.30;;;2.17;;
1174;SDS011;576;48.418;10.074;2024-02-15T08:01:20;1.60;;;1.50;;
1174;SDS011;576;48.418;10.074;2024-02-15T08:03:51;2.13;;;1.57;;
1174;SDS011;576;48.418;10.074;2024-02-15T08:06:22;2.00;;;1.87;;
1174;SDS011;576;48.418;10.074;2024-02-15T08:08:55;2.00;;;1.90;;
1174;SDS011;576;48.418;10.074;2024-02-15T08:11:23;2.80;;;2.10;;
1174;SDS011;576;48.418;10.074;2024-02-15T08:13:53;3.87;;;3.40;;
1174;SDS011;576;48.418;10.074;2024-02-15T08:16:25;4.60;;;2.20;;
1174;SDS011;576;48.418;10.074;2024-02-15T08:18:54;3.40;;;2.23;;
1174;SDS011;576;48.418;10.074;2024-02-15T08:21:28;2.37;;;2.17;;
1174;SDS011;576;48.418;10.074;2024-02-15T08:23:59;6.80;;;2.30;;
1174;SDS011;576;48.418;10.074;2024-02-15T08:26:32;3.93;;;2.87;;
1174;SDS011;576;48.418;10.074;2024-02-15T08:29:02;4.03;;;2.27;;
1174;SDS011;576;48.418;10.074;2024-02-15T08:31:30;6.20;;;2.47;;
1174;SDS011;576;48.418;10.074;2024-02-15T08:34:00;4.50;;;2.20;;
1174;SDS011;576;48.418;10.074;2024-02-15T08:36:34;3.30;;;1.97;;
1174;SDS011;576;48.418;10.074;2024-02-15T08:39:03;2.93;;;1.97;;
1174;SDS011;576;48.418;10.074;2024-02-15T08:41:32;3.00;;;1.97;;
1174;SDS011;576;48.418;10.074;2024-02-15T08:44:01;2.53;;;2.20;;
1174;SDS011;576;48.418;10.074;2024-02-15T08:46:34;2.13;;;1.93;;
1174;SDS011;576;48.418;10.074;2024-02-15T08:49:03;3.20;;;2.03;;
1174;SDS011;576;48.418;10.074;2024-02-15T08:51:31;4.00;;;2.57;;
1174;SDS011;576;48.418;10.074;2024-02-15T08:54:01;4.73;;;2.00;;
1174;SDS011;576;48.418;10.074;2024-02-15T08:56:30;5.67;;;2.87;;
1174;SDS011;576;48.418;10.074;2024-02-15T08:59:00;5.43;;;2.20;;
1174;SDS011;576;48.418;10.074;2024-02-15T09:01:30;4.33;;;2.33;;
1174;SDS011;576;48.418;10.074;2024-02-15T09:04:00;3.60;;;2.60;;
1174;SDS011;576;48.418;10.074;2024-02-15T09:06:29;6.57;;;3.20;;
1174;SDS011;576;48.418;10.074;2024-02-15T09:08:59;3.50;;;2.90;;
1174;SDS011;576;48.418;10.074;2024-02-15T09:11:30;9.13;;;3.60;;
1174;SDS011;576;48.418;10.074;2024-02-15T09:13:58;7.17;;;3.10;;
1174;SDS011;576;48.418;10.074;2024-02-15T09:16:26;7.40;;;2.90;;
1174;SDS011;576;48.418;10.074;2024-02-15T09:18:56;5.30;;;3.00;;
1174;SDS011;576;48.418;10.074;2024-02-15T09:21:27;4.60;;;3.03;;
1174;SDS011;576;48.418;10.074;2024-02-15T09:23:56;4.93;;;3.33;;
1174;SDS011;576;48.418;10.074;2024-02-15T09:26:26;5.40;;;3.07;;
1174;SDS011;576;48.418;10.074;2024-02-15T09:28:55;4.87;;;2.53;;
1174;SDS011;576;48.418;10.074;2024-02-15T09:31:23;6.93;;;2.90;;
1174;SDS011;576;48.418;10.074;2024-02-15T09:33:52;4.70;;;2.73;;
1174;SDS011;576;48.418;10.074;2024-02-15T09:36:21;3.80;;;2.90;;
1174;SDS011;576;48.418;10.074;2024-02-15T09:38:49;5.30;;;2.43;;
1174;SDS011;576;48.418;10.074;2024-02-15T09:41:17;7.80;;;3.20;;
1174;SDS011;576;48.418;10.074;2024-02-15T09:43:47;4.50;;;2.87;;
1174;SDS011;576;48.418;10.074;2024-02-15T09:46:15;3.37;;;2.20;;
1174;SDS011;576;48.418;10.074;2024-02-15T09:48:44;3.57;;;2.53;;
1174;SDS011;576;48.418;10.074;2024-02-15T09:51:17;2.50;;;2.30;;
1174;SDS011;576;48.418;10.074;2024-02-15T09:53:48;4.37;;;3.40;;
1174;SDS011;576;48.418;10.074;2024-02-15T09:56:16;2.70;;;2.50;;
1174;SDS011;576;48.418;10.074;2024-02-15T09:58:47;3.70;;;2.30;;
1174;SDS011;576;48.418;10.074;2024-02-15T10:01:17;3.47;;;2.70;;
1174;SDS011;576;48.418;10.074;2024-02-15T10:03:50;3.80;;;2.30;;
1174;SDS011;576;48.418;10.074;2024-02-15T10:06:18;2.63;;;2.30;;
1174;SDS011;576;48.418;10.074;2024-02-15T10:08:48;2.60;;;2.13;;
1174;SDS011;576;48.418;10.074;2024-02-15T10:11:16;2.73;;;2.53;;
1174;SDS011;576;48.418;10.074;2024-02-15T10:13:48;2.77;;;2.17;;
1174;SDS011;576;48.418;10.074;2024-02-15T10:16:16;5.07;;;2.20;;
1174;SDS011;576;48.418;10.074;2024-02-15T10:18:45;2.00;;;1.90;;
1174;SDS011;576;48.418;10.074;2024-02-15T10:21:24;2.27;;;2.17;;
1174;SDS011;576;48.418;10.074;2024-02-15T10:24:04;2.13;;;1.93;;
1174;SDS011;576;48.418;10.074;2024-02-15T10:26:33;2.13;;;1.90;;
1174;SDS011;576;48.418;10.074;2024-02-15T10:29:08;4.60;;;2.10;;
1174;SDS011;576;48.418;10.074;2024-02-15T10:31:37;3.13;;;2.43;;
1174;SDS011;576;48.418;10.074;2024-02-15T10:34:07;2.23;;;2.03;;
1174;SDS011;576;48.418;10.074;2024-02-15T10:36:36;2.57;;;2.37;;
1174;SDS011;576;48.418;10.074;2024-02-15T10:39:12;2.10;;;1.90;;
1174;SDS011;576;48.418;10.074;2024-02-15T10:41:48;4.03;;;2.30;;
1174;SDS011;576;48.418;10.074;2024-02-15T10:44:20;2.50;;;2.30;;
1174;SDS011;576;48.418;10.074;2024-02-15T10:46:50;3.13;;;1.70;;
1174;SDS011;576;48.418;10.074;2024-02-15T10:49:21;6.80;;;2.30;;
1174;SDS011;576;48.418;10.074;2024-02-15T10:51:53;2.10;;;2.00;;
1174;SDS011;576;48.418;10.074;2024-02-15T10:54:28;4.20;;;2.00;;
1174;SDS011;576;48.418;10.074;2024-02-15T10:57:08;1.97;;;1.87;;
1174;SDS011;576;48.418;10.074;2024-02-15T10:59:39;2.23;;;2.10;;
1174;SDS011;576;48.418;10.074;2024-02-15T11:02:23;2.70;;;2.47;;
1174;SDS011;576;48.418;10.074;2024-02-15T11:04:59;3.13;;;2.13;;
1174;SDS011;576;48.418;10.074;2024-02-15T11:07:32;2.07;;;1.70;;
1174;SDS011;576;48.418;10.074;2024-02-15T11:10:01;2.13;;;1.93;;
1174;SDS011;576;48.418;10.074;2024-02-15T11:12:37;2.87;;;2.17;;
1174;SDS011;576;48.418;10.074;2024-02-15T11:15:09;1.90;;;1.77;;
1174;SDS011;576;48.418;10.074;2024-02-15T11:17:45;2.20;;;2.00;;
1174;SDS011;576;48.418;10.074;2024-02-15T11:23:24;2.80;;;2.17;;
1174;SDS011;576;48.418;10.074;2024-02-15T11:26:02;1.87;;;1.77;;
1174;SDS011;576;48.418;10.074;2024-02-15T11:28:38;2.90;;;2.10;;
1174;SDS011;576;48.418;10.074;2024-02-15T11:31:52;2.13;;;1.80;;
1174;SDS011;576;48.418;10.074;2024-02-15T11:34:41;5.10;;;2.10;;
1174;SDS011;576;48.418;10.074;2024-02-15T11:40:18;1.80;;;1.70;;
1174;SDS011;576;48.418;10.074;2024-02-15T11:42:49;2.13;;;1.83;;
1174;SDS011;576;48.418;10.074;2024-02-15T11:45:19;1.60;;;1.50;;
1174;SDS011;576;48.418;10.074;2024-02-15T11:47:50;1.80;;;1.70;;
1174;SDS011;576;48.418;10.074;2024-02-15T11:50:21;2.93;;;1.93;;
1174;SDS011;576;48.418;10.074;2024-02-15T11:52:50;1.87;;;1.67;;
1174;SDS011;576;48.418;10.074;2024-02-15T11:55:19;2.70;;;2.20;;
1174;SDS011;576;48.418;10.074;2024-02-15T11:57:57;2.27;;;2.07;;
1174;SDS011;576;48.418;10.074;2024-02-15T12:00:32;2.00;;;1.80;;
1174;SDS011;576;48.418;10.074;2024-02-15T12:03:19;2.00;;;1.90;;
1174;SDS011;576;48.418;10.074;2024-02-15T12:06:17;3.30;;;1.80;;
1174;SDS011;576;48.418;10.074;2024-02-15T12:09:03;2.10;;;2.00;;
1174;SDS011;576;48.418;10.074;2024-02-15T12:11:53;2.03;;;1.90;;
1174;SDS011;576;48.418;10.074;2024-02-15T12:14:42;2.27;;;2.07;;
1174;SDS011;576;48.418;10.074;2024-02-15T12:17:30;1.87;;;1.77;;
1174;SDS011;576;48.418;10.074;2024-02-15T12:20:18;4.03;;;2.00;;
1174;SDS011;576;48.418;10.074;2024-02-15T12:22:52;2.23;;;2.03;;
1174;SDS011;576;48.418;10.074;2024-02-15T12:25:20;2.90;;;2.43;;
1174;SDS011;576;48.418;10.074;2024-02-15T12:27:52;3.33;;;2.03;;
1174;SDS011;576;48.418;10.074;2024-02-15T12:30:21;2.00;;;1.80;;
1174;SDS011;576;48.418;10.074;2024-02-15T12:32:52;1.90;;;1.80;;
1174;SDS011;576;48.418;10.074;2024-02-15T12:35:37;2.03;;;1.87;;
1174;SDS011;576;48.418;10.074;2024-02-15T12:38:06;2.23;;;2.03;;
1174;SDS011;576;48.418;10.074;2024-02-15T12:40:36;4.20;;;1.93;;
1174;SDS011;576;48.418;10.074;2024-02-15T12:43:09;2.20;;;2.00;;
1174;SDS011;576;48.418;10.074;2024-02-15T12:45:38;1.80;;;1.70;;
1174;SDS011;576;48.418;10.074;2024-02-15T12:48:08;2.13;;;1.93;;
1174;SDS011;576;48.418;10.074;2024-02-15T12:50:38;1.50;;;1.40;;
1174;SDS011;576;48.418;10.074;2024-02-15T12:53:07;1.67;;;1.57;;
1174;SDS011;576;48.418;10.074;2024-02-15T12:55:36;2.17;;;1.97;;
1174;SDS011;576;48.418;10.074;2024-02-15T12:58:06;2.40;;;2.20;;
1174;SDS011;576;48.418;10.074;2024-02-15T13:00:42;3.37;;;1.70;;
1174;SDS011;576;48.418;10.074;2024-02-15T13:03:11;1.90;;;1.80;;
1174;SDS011;576;48.418;10.074;2024-02-15T13:05:43;3.10;;;1.43;;
1174;SDS011;576;48.418;10.074;2024-02-15T13:08:12;5.83;;;1.87;;
1174;SDS011;576;48.418;10.074;2024-02-15T13:10:41;1.90;;;1.67;;
1174;SDS011;576;48.418;10.074;2024-02-15T13:13:10;5.70;;;2.80;;
1174;SDS011;576;48.418;10.074;2024-02-15T13:15:41;2.23;;;1.87;;
1174;SDS011;576;48.418;10.074;2024-02-15T13:18:10;2.00;;;1.73;;
1174;SDS011;576;48.418;10.074;2024-02-15T13:20:40;2.60;;;1.90;;
1174;SDS011;576;48.418;10.074;2024-02-15T13:23:11;2.60;;;2.07;;
1174;SDS011;576;48.418;10.074;2024-02-15T13:25:46;1.80;;;1.70;;
1174;SDS011;576;48.418;10.074;2024-02-15T13:28:15;2.87;;;1.70;;
1174;SDS011;576;48.418;10.074;2024-02-15T13:30:43;1.60;;;1.40;;
1174;SDS011;576;48.418;10.074;2024-02-15T13:33:12;2.13;;;1.67;;
1174;SDS011;576;48.418;10.074;2024-02-15T13:35:43;2.13;;;1.77;;
1174;SDS011;576;48.418;10.074;2024-02-15T13:38:11;1.70;;;1.57;;
1174;SDS011;576;48.418;10.074;2024-02-15T13:40:49;1.60;;;1.50;;
1174;SDS011;576;48.418;10.074;2024-02-15T13:43:18;2.20;;;1.50;;
1174;SDS011;576;48.418;10.074;2024-02-15T13:45:46;1.80;;;1.70;;
1174;SDS011;576;48.418;10.074;2024-02-15T13:48:15;3.13;;;1.60;;
1174;SDS011;576;48.418;10.074;2024-02-15T13:50:45;1.80;;;1.70;;
1174;SDS011;576;48.418;10.074;2024-02-15T13:53:14;1.60;;;1.50;;
1174;SDS011;576;48.418;10.074;2024-02-15T13:55:42;1.40;;;1.30;;
1174;SDS011;576;48.418;10.074;2024-02-15T13:58:11;1.90;;;1.50;;
1174;SDS011;576;48.418;10.074;2024-02-15T14:00:40;1.57;;;1.47;;
1174;SDS011;576;48.418;10.074;2024-02-15T14:03:10;2.47;;;1.90;;
1174;SDS011;576;48.418;10.074;2024-02-15T14:05:42;1.70;;;1.50;;
1174;SDS011;576;48.418;10.074;2024-02-15T14:08:14;2.87;;;1.57;;
1174;SDS011;576;48.418;10.074;2024-02-15T14:10:42;2.50;;;1.70;;
1174;SDS011;576;48.418;10.074;2024-02-15T14:13:11;1.40;;;1.17;;
1174;SDS011;576;48.418;10.074;2024-02-15T14:15:41;1.60;;;1.50;;
1174;SDS011;576;48.418;10.074;2024-02-15T14:18:11;1.83;;;1.50;;
1174;SDS011;576;48.418;10.074;2024-02-15T14:20:42;3.30;;;1.77;;
1174;SDS011;576;48.418;10.074;2024-02-15T14:23:10;1.30;;;1.20;;
1174;SDS011;576;48.418;10.074;2024-02-15T14:25:43;2.20;;;1.70;;
1174;SDS011;576;48.418;10.074;2024-02-15T14:28:12;1.63;;;1.40;;
1174;SDS011;576;48.418;10.074;2024-02-15T14:30:42;1.53;;;1.10;;
1174;SDS011;576;48.418;10.074;2024-02-15T14:33:27;1.03;;;1.03;;
1174;SDS011;576;48.418;10.074;2024-02-15T14:36:01;1.40;;;1.30;;
1174;SDS011;576;48.418;10.074;2024-02-15T14:38:31;1.80;;;1.40;;
1174;SDS011;576;48.418;10.074;2024-02-15T14:41:02;2.73;;;1.50;;
1174;SDS011;576;48.418;10.074;2024-02-15T14:43:34;1.70;;;1.60;;
1174;SDS011;576;48.418;10.074;2024-02-15T14:46:03;1.00;;;1.00;;
1174;SDS011;576;48.418;10.074;2024-02-15T14:48:32;1.60;;;1.50;;
1174;SDS011;576;48.418;10.074;2024-02-15T14:51:00;1.53;;;1.23;;
1174;SDS011;576;48.418;10.074;2024-02-15T14:53:29;1.60;;;1.50;;
1174;SDS011;576;48.418;10.074;2024-02-15T14:55:58;1.70;;;1.60;;
1174;SDS011;576;48.418;10.074;2024-02-15T14:58:27;1.57;;;1.47;;
1174;SDS011;576;48.418;10.074;2024-02-15T15:00:55;2.13;;;1.30;;
1174;SDS011;576;48.418;10.074;2024-02-15T15:03:30;1.57;;;1.20;;
1174;SDS011;576;48.418;10.074;2024-02-15T15:05:59;1.87;;;1.77;;
1174;SDS011;576;48.418;10.074;2024-02-15T15:08:45;2.00;;;1.17;;
1174;SDS011;576;48.418;10.074;2024-02-15T15:11:31;1.60;;;1.40;;
1174;SDS011;576;48.418;10.074;2024-02-15T15:14:18;1.30;;;1.20;;
1174;SDS011;576;48.418;10.074;2024-02-15T15:16:46;1.20;;;1.10;;
1174;SDS011;576;48.418;10.074;2024-02-15T15:19:15;1.33;;;1.23;;
1174;SDS011;576;48.418;10.074;2024-02-15T15:21:44;1.30;;;1.20;;
1174;SDS011;576;48.418;10.074;2024-02-15T15:24:13;1.47;;;1.37;;
1174;SDS011;576;48.418;10.074;2024-02-15T15:26:41;1.50;;;1.40;;
1174;SDS011;576;48.418;10.074;2024-02-15T15:29:09;1.50;;;1.40;;
1174;SDS011;576;48.418;10.074;2024-02-15T15:31:39;2.20;;;1.57;;
1174;SDS011;576;48.418;10.074;2024-02-15T15:34:08;1.60;;;1.23;;
1174;SDS011;576;48.418;10.074;2024-02-15T15:36:36;1.73;;;1.63;;
1174;SDS011;576;48.418;10.074;2024-02-15T15:39:05;1.60;;;1.50;;
1174;SDS011;576;48.418;10.074;2024-02-15T15:41:36;1.93;;;1.47;;
1174;SDS011;576;48.418;10.074;2024-02-15T15:44:05;1.57;;;1.30;;
1174;SDS011;576;48.418;10.074;2024-02-15T15:46:33;1.70;;;1.60;;